Time;durP1;ratioP1;P1;durP2;ratioP2;P2;SDS_P1;SDS_P2;PMS_P1;PMS_P2;Temp;Humidity;BMP_temperature;BMP_pressure;BME280_temperature;BME280_humidity;BME280_pressure;Samples;Min_cycle;Max_cycle;Signal;HPM_P1;HPM_P2
2021/07/21 00:01:38;;;;;;;21.88;9.85;;;;;;;16.85;75.83;102326.13;4905898;29;20035;-94
2021/07/21 00:04:07;;;;;;;15.45;8.57;;;;;;;16.80;75.97;102326.41;4909234;29;20034;-93
2021/07/21 00:06:32;;;;;;;14.70;9.00;;;;;;;16.79;76.03;102322.00;4907716;29;20039;-93
2021/07/21 00:08:58;;;;;;;14.85;8.88;;;;;;;16.78;76.58;102327.44;4889384;29;20031;-91
2021/07/21 00:14:40;;;;;;;15.75;8.75;;;;;;;16.73;76.26;102327.69;4923444;29;20032;-92
2021/07/21 00:17:04;;;;;;;14.23;8.25;;;;;;;16.69;76.33;102326.16;4907876;29;20470;-93
2021/07/21 00:22:14;;;;;;;15.40;8.13;;;;;;;16.66;76.08;102326.31;4923809;29;20034;-93
2021/07/21 00:24:41;;;;;;;14.70;8.05;;;;;;;16.62;75.94;102325.63;4890021;29;20036;-92
2021/07/21 00:27:07;;;;;;;15.23;9.13;;;;;;;16.62;77.36;102324.75;4891109;29;20030;-92
2021/07/21 00:29:33;;;;;;;15.18;8.85;;;;;;;16.63;78.17;102331.84;4906965;29;20036;-93
2021/07/21 00:31:58;;;;;;;17.45;10.48;;;;;;;16.61;78.52;102328.38;4906643;29;20031;-93
2021/07/21 00:34:24;;;;;;;18.88;10.65;;;;;;;16.57;78.56;102327.69;4919806;23;20059;-82
2021/07/21 00:36:49;;;;;;;19.48;10.02;;;;;;;16.55;78.73;102330.44;4919081;29;20036;-83
2021/07/21 00:39:15;;;;;;;19.23;10.75;;;;;;;16.53;79.14;102321.66;4935884;29;20042;-82
2021/07/21 00:41:40;;;;;;;18.92;11.15;;;;;;;16.48;79.13;102321.03;4935944;29;20031;-82
2021/07/21 00:44:06;;;;;;;19.15;11.25;;;;;;;16.46;79.28;102322.09;4935826;29;20028;-83
2021/07/21 00:46:31;;;;;;;20.02;10.93;;;;;;;16.38;79.19;102320.69;4936019;29;20036;-83
2021/07/21 00:48:57;;;;;;;22.90;11.60;;;;;;;16.35;79.71;102323.50;4935867;29;20028;-84
2021/07/21 00:51:22;;;;;;;19.58;10.75;;;;;;;16.35;79.67;102325.34;4919178;29;20024;-81
2021/07/21 00:53:48;;;;;;;22.48;11.20;;;;;;;16.31;79.13;102325.50;4936030;29;20434;-82
2021/07/21 00:56:13;;;;;;;22.08;11.45;;;;;;;16.29;80.06;102319.38;4935965;29;20028;-83
2021/07/21 00:58:39;;;;;;;17.02;9.80;;;;;;;16.25;79.55;102327.63;4918722;29;20036;-82
2021/07/21 01:01:04;;;;;;;21.05;9.65;;;;;;;16.25;79.45;102323.16;4936009;29;20119;-82
2021/07/21 01:03:30;;;;;;;19.83;10.45;;;;;;;16.24;79.37;102326.75;4935646;29;20467;-83
2021/07/21 01:05:56;;;;;;;18.17;10.07;;;;;;;16.22;79.30;102326.00;4935878;29;20118;-82
2021/07/21 01:08:23;;;;;;;15.18;8.48;;;;;;;16.19;78.96;102324.34;4935914;29;20360;-84
2021/07/21 01:10:52;;;;;;;16.58;8.45;;;;;;;16.18;78.74;102327.09;4918933;29;20020;-83
2021/07/21 01:13:26;;;;;;;15.40;8.77;;;;;;;16.21;78.66;102328.75;4903388;29;20078;-83
2021/07/21 01:15:59;;;;;;;15.73;8.57;;;;;;;16.18;78.14;102327.97;4903322;29;20542;-83
2021/07/21 01:18:28;;;;;;;15.73;8.50;;;;;;;16.18;78.44;102330.63;4919145;29;20034;-83
2021/07/21 01:21:12;;;;;;;14.80;8.90;;;;;;;16.17;78.43;102328.91;4918817;29;20028;-83
2021/07/21 01:23:46;;;;;;;14.90;8.85;;;;;;;16.13;78.38;102321.16;4935552;29;20462;-83
2021/07/21 01:26:24;;;;;;;14.52;8.45;;;;;;;16.09;78.77;102323.13;4918490;29;20035;-84
2021/07/21 01:28:50;;;;;;;14.07;8.38;;;;;;;16.06;78.73;102328.63;4935496;29;20039;-83
2021/07/21 01:31:20;;;;;;;16.88;8.75;;;;;;;16.06;79.13;102324.16;4935723;29;20028;-81
2021/07/21 01:33:45;;;;;;;18.65;10.00;;;;;;;16.06;79.22;102323.28;4919184;29;20059;-82
2021/07/21 01:36:17;;;;;;;14.35;8.68;;;;;;;16.03;78.66;102324.31;4918509;29;20032;-83
2021/07/21 01:38:45;;;;;;;12.68;8.20;;;;;;;16.03;78.83;102313.63;4918554;29;20050;-82
2021/07/21 01:41:22;;;;;;;14.60;8.18;;;;;;;16.00;78.95;102319.13;4902916;29;20027;-82
2021/07/21 01:43:49;;;;;;;14.85;8.70;;;;;;;16.00;78.96;102311.13;4918476;29;20035;-82
2021/07/21 01:46:15;;;;;;;15.48;9.35;;;;;;;15.99;79.25;102308.53;4935408;29;20024;-83
2021/07/21 01:48:41;;;;;;;17.02;9.73;;;;;;;15.97;79.13;102313.06;4903007;29;20079;-83
2021/07/21 01:51:07;;;;;;;14.35;8.48;;;;;;;15.93;79.37;102321.22;4902834;29;20435;-83
2021/07/21 01:53:34;;;;;;;15.88;9.30;;;;;;;15.90;79.13;102318.72;4918211;29;20083;-83
2021/07/21 01:55:59;;;;;;;13.82;8.02;;;;;;;15.89;79.26;102324.13;4918617;29;20024;-82
2021/07/21 01:58:25;;;;;;;15.20;8.40;;;;;;;15.88;79.01;102311.72;4938827;29;20442;-83
2021/07/21 02:00:51;;;;;;;11.90;7.50;;;;;;;15.84;78.89;102312.84;4922042;29;20407;-83
2021/07/21 02:03:16;;;;;;;14.38;8.13;;;;;;;15.80;78.62;102315.66;4938894;29;20050;-82
2021/07/21 02:05:42;;;;;;;17.85;8.27;;;;;;;15.77;78.88;102315.81;4906248;29;20036;-83
2021/07/21 02:08:07;;;;;;;14.90;8.95;;;;;;;15.74;79.20;102312.44;4921830;29;20023;-83
2021/07/21 02:10:33;;;;;;;12.52;7.95;;;;;;;15.72;79.16;102320.50;4906625;29;20032;-82
2021/07/21 02:13:01;;;;;;;13.25;7.85;;;;;;;15.68;78.93;102309.16;4923013;29;20483;-82
2021/07/21 02:15:27;;;;;;;16.45;8.40;;;;;;;15.67;79.33;102314.56;4940001;29;20036;-82
2021/07/21 02:17:53;;;;;;;16.38;8.73;;;;;;;15.65;79.57;102319.13;4907977;29;20383;-81
2021/07/21 02:20:19;;;;;;;12.52;7.30;;;;;;;15.62;78.79;102325.47;4940681;29;20032;-82
2021/07/21 02:22:44;;;;;;;13.20;7.63;;;;;;;15.59;78.50;102324.75;4924918;29;20141;-83
2021/07/21 02:25:10;;;;;;;14.30;7.88;;;;;;;15.57;78.46;102323.03;4923197;29;20019;-83
2021/07/21 02:27:36;;;;;;;13.80;8.63;;;;;;;15.57;79.34;102325.72;4921759;29;20024;-82
2021/07/21 02:30:03;;;;;;;14.90;8.05;;;;;;;15.56;79.52;102323.97;4938562;29;20020;-82
2021/07/21 02:32:32;;;;;;;14.82;8.63;;;;;;;15.57;79.41;102325.72;4921470;29;20044;-83
2021/07/21 02:34:58;;;;;;;16.35;8.95;;;;;;;15.54;79.43;102317.00;4906267;29;20060;-81
2021/07/21 02:37:23;;;;;;;13.02;7.95;;;;;;;15.54;79.48;102325.00;4921391;29;20039;-82
2021/07/21 02:39:49;;;;;;;13.65;8.07;;;;;;;15.49;78.95;102325.22;4938310;29;20103;-82
2021/07/21 02:42:15;;;;;;;12.82;8.13;;;;;;;15.49;79.09;102313.69;4938070;29;20035;-82
2021/07/21 02:44:41;;;;;;;13.65;8.25;;;;;;;15.46;78.82;102312.06;4938400;29;20024;-82
2021/07/21 02:47:07;;;;;;;13.75;9.02;;;;;;;15.42;79.37;102310.50;4938464;29;20111;-81
2021/07/21 02:49:32;;;;;;;13.18;7.88;;;;;;;15.41;79.13;102314.94;4938398;29;20034;-83
2021/07/21 02:52:05;;;;;;;12.70;7.47;;;;;;;15.39;78.68;102310.66;4938322;29;20039;-81
2021/07/21 02:54:44;;;;;;;12.68;7.55;;;;;;;15.37;79.62;102309.84;4905989;29;20054;-83
2021/07/21 02:57:21;;;;;;;12.90;8.15;;;;;;;15.37;79.56;102315.19;4922585;29;20024;-83
2021/07/21 02:59:50;;;;;;;13.57;8.07;;;;;;;15.36;79.90;102313.47;4921882;29;20039;-82
2021/07/21 03:02:19;;;;;;;13.25;8.55;;;;;;;15.36;79.81;102319.63;4938809;29;20031;-83
2021/07/21 03:04:44;;;;;;;18.73;9.63;;;;;;;15.37;80.47;102309.84;4938790;29;20040;-82
2021/07/21 03:07:10;;;;;;;18.42;9.95;;;;;;;15.42;81.27;102318.50;4905124;29;20435;-83
2021/07/21 03:09:35;;;;;;;17.15;9.73;;;;;;;15.44;80.64;102320.13;4905358;29;20054;-82
2021/07/21 03:12:02;;;;;;;16.27;9.40;;;;;;;15.42;80.44;102319.34;4905331;29;20032;-81
2021/07/21 03:14:28;;;;;;;14.52;8.57;;;;;;;15.39;80.19;102316.81;4920677;29;20360;-83
2021/07/21 03:16:53;;;;;;;15.23;8.27;;;;;;;15.34;79.83;102320.66;4937598;29;20075;-82
2021/07/21 03:19:23;;;;;;;16.20;8.93;;;;;;;15.34;80.63;102323.34;4920486;29;20039;-83
2021/07/21 03:21:48;;;;;;;18.83;9.52;;;;;;;15.29;80.43;102328.88;4905226;29;20024;-82
2021/07/21 03:24:13;;;;;;;14.95;9.38;;;;;;;15.27;81.12;102323.63;4937360;29;20032;-83
2021/07/21 03:26:39;;;;;;;17.73;9.50;;;;;;;15.25;81.02;102328.16;4920417;29;20040;-83
2021/07/21 03:29:05;;;;;;;18.90;9.32;;;;;;;15.25;81.24;102330.00;4921607;29;20071;-82
2021/07/21 03:31:30;;;;;;;15.43;9.45;;;;;;;15.23;81.15;102327.41;4906100;29;20024;-83
2021/07/21 03:34:02;;;;;;;16.85;9.70;;;;;;;15.24;81.21;102330.91;4923697;29;20070;-84
2021/07/21 03:36:29;;;;;;;18.33;10.23;;;;;;;15.26;81.55;102337.91;4925309;29;20035;-82
2021/07/21 03:38:55;;;;;;;16.30;9.93;;;;;;;15.26;81.41;102337.03;4924935;29;20023;-83
2021/07/21 03:41:21;;;;;;;18.02;10.10;;;;;;;15.24;81.39;102336.25;4906222;29;20043;-83
2021/07/21 03:43:46;;;;;;;18.70;10.90;;;;;;;15.23;81.60;102342.50;4920657;29;20028;-84
2021/07/21 03:46:12;;;;;;;19.52;10.65;;;;;;;15.22;81.28;102346.97;4920032;29;20031;-84
2021/07/21 03:48:37;;;;;;;17.77;10.13;;;;;;;15.23;81.14;102342.50;4920003;29;20087;-83
2021/07/21 03:51:03;;;;;;;17.45;9.77;;;;;;;15.22;81.22;102346.97;4888635;29;20082;-84
2021/07/21 03:53:28;;;;;;;19.08;10.77;;;;;;;15.22;81.20;102348.78;4888540;29;20036;-82
2021/07/21 03:55:55;;;;;;;19.08;10.10;;;;;;;15.22;81.11;102346.97;4904113;29;20105;-82
2021/07/21 03:58:21;;;;;;;18.15;10.27;;;;;;;15.22;81.23;102336.31;4919915;29;20044;-83
2021/07/21 04:00:46;;;;;;;18.08;9.88;;;;;;;15.22;80.95;102338.97;4919863;29;20039;-84
2021/07/21 04:03:12;;;;;;;18.38;10.05;;;;;;;15.24;81.21;102342.44;4904128;29;20044;-82
2021/07/21 04:05:37;;;;;;;22.15;12.00;;;;;;;15.26;81.16;102343.25;4936657;29;20028;-83
2021/07/21 04:08:03;;;;;;;20.55;10.95;;;;;;;15.28;80.99;102338.69;4904095;29;20055;-83
2021/07/21 04:10:29;;;;;;;17.92;9.90;;;;;;;15.30;81.00;102335.94;4919695;29;20039;-84
2021/07/21 04:12:54;;;;;;;19.20;10.38;;;;;;;15.33;80.92;102341.13;4919352;29;20094;-82
2021/07/21 04:15:23;;;;;;;19.23;10.65;;;;;;;15.36;81.28;102340.13;4919620;29;20415;-83
2021/07/21 04:17:49;;;;;;;20.20;11.00;;;;;;;15.36;80.98;102335.63;4919575;29;20024;-84
2021/07/21 04:20:14;;;;;;;20.90;11.50;;;;;;;15.40;81.14;102336.34;4935825;29;20028;-82
2021/07/21 04:22:40;;;;;;;21.52;12.55;;;;;;;15.48;80.95;102336.84;4919506;29;20038;-83
2021/07/21 04:25:06;;;;;;;20.08;11.55;;;;;;;15.49;81.08;102340.34;4919259;29;20364;-82
2021/07/21 04:27:32;;;;;;;18.92;11.07;;;;;;;15.55;81.20;102335.59;4936542;29;20470;-84
2021/07/21 04:29:58;;;;;;;23.77;12.02;;;;;;;15.61;80.79;102333.56;4903936;29;20030;-82
2021/07/21 04:32:23;;;;;;;23.33;12.10;;;;;;;15.67;80.55;102343.91;4919376;29;20084;-83
2021/07/21 04:34:50;;;;;;;23.52;11.85;;;;;;;15.71;80.23;102329.47;4926904;23;20051;-83
2021/07/21 04:37:15;;;;;;;19.90;11.30;;;;;;;15.77;80.37;102339.81;4903474;29;20561;-83
2021/07/21 04:39:42;;;;;;;17.90;10.52;;;;;;;15.81;80.10;102336.03;4903444;29;20027;-83
2021/07/21 04:42:07;;;;;;;21.05;11.82;;;;;;;15.88;80.04;102343.72;4935923;29;20471;-82
2021/07/21 04:44:34;;;;;;;19.05;11.77;;;;;;;15.93;79.83;102341.69;4936130;29;20039;-82
2021/07/21 04:47:00;;;;;;;20.73;11.73;;;;;;;15.99;79.71;102338.75;4903448;29;20031;-83
2021/07/21 04:49:26;;;;;;;23.98;12.00;;;;;;;16.03;79.59;102340.31;4919116;29;20034;-82
2021/07/21 04:51:53;;;;;;;20.08;11.85;;;;;;;16.10;79.59;102348.00;4936147;29;20471;-82
2021/07/21 04:54:18;;;;;;;19.20;11.88;;;;;;;16.19;79.27;102351.03;4935861;29;20114;-82
2021/07/21 04:56:44;;;;;;;18.33;11.02;;;;;;;16.23;79.24;102348.19;4935941;29;20107;-82
2021/07/21 04:59:09;;;;;;;21.17;11.73;;;;;;;16.30;79.07;102358.47;4935986;29;20036;-83
2021/07/21 05:01:35;;;;;;;19.65;11.38;;;;;;;16.38;78.90;102346.53;4936136;29;20031;-83
2021/07/21 05:04:00;;;;;;;19.55;11.65;;;;;;;16.47;78.54;102354.03;4919126;29;20075;-82
2021/07/21 05:06:26;;;;;;;21.10;11.80;;;;;;;16.54;78.32;102363.44;4936803;29;20028;-83
2021/07/21 05:08:51;;;;;;;19.67;11.63;;;;;;;16.58;78.25;102358.81;4919889;29;20034;-82
2021/07/21 05:11:18;;;;;;;17.58;10.73;;;;;;;16.68;78.10;102353.78;4936316;29;20060;-82
2021/07/21 05:13:43;;;;;;;23.02;11.88;;;;;;;16.73;77.74;102364.22;4936445;29;20040;-82
2021/07/21 05:16:09;;;;;;;21.23;10.88;;;;;;;16.83;77.64;102360.13;4937904;29;20534;-83
2021/07/21 05:18:35;;;;;;;19.77;11.70;;;;;;;16.84;77.78;102368.97;4927277;29;20039;-82
2021/07/21 05:21:01;;;;;;;22.30;12.35;;;;;;;16.97;77.49;102369.16;4907160;29;20084;-84
2021/07/21 05:23:27;;;;;;;20.10;11.65;;;;;;;17.06;77.21;102369.50;4925598;29;20060;-82
2021/07/21 05:25:52;;;;;;;20.52;12.38;;;;;;;17.15;77.09;102375.28;4925713;29;20448;-83
2021/07/21 05:28:17;;;;;;;18.15;11.15;;;;;;;17.23;76.68;102377.53;4925952;29;20411;-83
2021/07/21 05:30:43;;;;;;;16.83;11.18;;;;;;;17.26;76.67;102372.88;4925858;29;20028;-83
2021/07/21 05:33:08;;;;;;;16.83;10.95;;;;;;;17.40;76.84;102373.91;4928715;29;20038;-83
2021/07/21 05:35:34;;;;;;;18.23;11.05;;;;;;;17.47;76.39;102380.63;4932002;29;20036;-82
2021/07/21 05:37:59;;;;;;;17.98;11.38;;;;;;;17.54;76.12;102381.97;4925183;29;20028;-83
2021/07/21 05:40:25;;;;;;;19.80;11.20;;;;;;;17.65;75.97;102377.84;4895469;29;20031;-82
2021/07/21 05:42:50;;;;;;;20.05;12.00;;;;;;;17.74;75.53;102382.63;4930729;29;20103;-83
2021/07/21 05:45:16;;;;;;;19.20;11.57;;;;;;;17.87;75.28;102385.41;4930538;29;20123;-83
2021/07/21 05:47:41;;;;;;;16.60;11.23;;;;;;;17.91;75.03;102381.63;4936275;29;20395;-82
2021/07/21 05:50:07;;;;;;;16.98;11.30;;;;;;;17.99;75.13;102389.19;4906337;29;20027;-83
2021/07/21 05:52:33;;;;;;;18.50;11.07;;;;;;;18.04;74.77;102387.06;4921953;29;20028;-83
2021/07/21 05:54:58;;;;;;;18.17;11.85;;;;;;;18.16;74.88;102388.19;4938955;29;20494;-80
2021/07/21 05:57:25;;;;;;;19.55;11.48;;;;;;;18.30;74.25;102389.16;4938553;29;20378;-82
2021/07/21 05:59:51;;;;;;;19.42;11.88;;;;;;;18.38;74.63;102386.88;4938890;29;20483;-79
2021/07/21 06:02:16;;;;;;;20.00;11.35;;;;;;;18.55;73.79;102387.63;4938597;29;20096;-81
2021/07/21 06:04:42;;;;;;;21.58;12.23;;;;;;;18.64;73.72;102391.53;4921721;29;20032;-83
2021/07/21 06:07:08;;;;;;;18.92;11.45;;;;;;;18.75;73.43;102393.56;4919869;29;20036;-82
2021/07/21 06:09:34;;;;;;;18.90;12.32;;;;;;;18.91;73.13;102394.31;4919569;29;20040;-82
2021/07/21 06:11:59;;;;;;;18.98;12.13;;;;;;;18.93;72.75;102399.56;4919598;29;20127;-83
2021/07/21 06:14:26;;;;;;;16.65;11.13;;;;;;;19.11;72.63;102402.06;4903425;29;20079;-82
2021/07/21 06:16:52;;;;;;;19.42;11.75;;;;;;;19.24;72.08;102394.06;4930429;29;20015;-77
2021/07/21 06:19:18;;;;;;;20.17;12.38;;;;;;;19.34;71.55;102399.69;4929401;29;20042;-78
2021/07/21 06:21:44;;;;;;;21.27;12.18;;;;;;;19.39;71.51;102405.59;4913057;29;20031;-80
2021/07/21 06:24:10;;;;;;;22.33;12.35;;;;;;;19.49;71.12;102409.38;4928470;29;20456;-86
2021/07/21 06:26:35;;;;;;;22.60;12.43;;;;;;;19.58;70.53;102415.13;4929698;29;20024;-74
2021/07/21 06:29:00;;;;;;;18.55;11.48;;;;;;;19.72;70.30;102406.13;4930131;29;20436;-74
2021/07/21 06:31:26;;;;;;;23.95;12.32;;;;;;;19.82;68.07;102414.41;4918272;29;20039;-78
2021/07/21 06:33:51;;;;;;;21.92;12.02;;;;;;;19.95;67.74;102412.63;4939447;29;20110;-73
2021/07/21 06:36:17;;;;;;;22.70;12.98;;;;;;;20.06;67.40;102413.72;4940186;29;20443;-76
2021/07/21 06:38:42;;;;;;;21.98;12.88;;;;;;;20.23;66.46;102418.81;4909617;29;20151;-79
2021/07/21 06:41:08;;;;;;;23.58;13.60;;;;;;;20.25;65.45;102416.00;4921622;29;20371;-77
2021/07/21 06:43:33;;;;;;;22.85;13.30;;;;;;;20.28;65.70;102426.53;4911035;29;20462;-79
2021/07/21 06:45:59;;;;;;;20.63;12.77;;;;;;;20.42;65.63;102423.75;4938448;29;20272;-77
2021/07/21 06:48:24;;;;;;;21.27;12.77;;;;;;;20.31;65.20;102425.47;4936355;29;20447;-82
2021/07/21 06:50:51;;;;;;;20.15;11.73;;;;;;;20.60;63.24;102427.94;4906697;29;20029;-77
2021/07/21 06:53:17;;;;;;;21.40;11.82;;;;;;;20.76;62.95;102433.06;4926974;29;20410;-80
2021/07/21 06:55:42;;;;;;;19.70;11.27;;;;;;;20.87;61.84;102432.28;4921510;29;20032;-78
2021/07/21 06:58:08;;;;;;;18.40;11.82;;;;;;;21.01;62.11;102434.88;4901653;29;20040;-79
2021/07/21 07:00:33;;;;;;;18.45;11.18;;;;;;;21.08;61.08;102437.97;4918495;29;20028;-79
2021/07/21 07:02:59;;;;;;;18.92;11.43;;;;;;;21.24;59.86;102437.69;4918734;29;20031;-78
2021/07/21 07:05:24;;;;;;;13.27;9.13;;;;;;;21.29;54.88;102434.66;4902930;29;20115;-77
2021/07/21 07:07:50;;;;;;;13.60;9.23;;;;;;;21.52;54.16;102445.56;4901672;29;20032;-77
2021/07/21 07:10:18;;;;;;;12.65;7.90;;;;;;;21.60;51.19;102447.66;4919304;29;20157;-81
2021/07/21 07:12:45;;;;;;;11.23;7.90;;;;;;;21.74;50.42;102446.63;4919009;29;20480;-77
2021/07/21 07:15:11;;;;;;;13.68;7.57;;;;;;;21.95;49.89;102440.63;4903017;29;20463;-76
2021/07/21 07:17:36;;;;;;;9.77;7.35;;;;;;;22.03;49.82;102441.75;4901686;29;20040;-77
2021/07/21 07:20:02;;;;;;;12.63;8.10;;;;;;;22.27;50.25;102440.81;4919166;29;20028;-77
2021/07/21 07:22:28;;;;;;;12.65;8.15;;;;;;;22.36;49.89;102444.63;4920159;29;20088;-77
2021/07/21 07:24:53;;;;;;;12.63;8.10;;;;;;;22.36;50.20;102447.31;4918732;29;20070;-77
2021/07/21 07:27:19;;;;;;;12.60;7.85;;;;;;;22.28;50.66;102447.03;4901404;29;20059;-76
2021/07/21 07:29:44;;;;;;;13.93;8.32;;;;;;;22.25;51.02;102445.47;4885616;29;20032;-77
2021/07/21 07:32:10;;;;;;;11.70;8.50;;;;;;;22.29;50.94;102448.78;4918700;29;20063;-77
2021/07/21 07:34:35;;;;;;;12.60;8.35;;;;;;;22.23;50.92;102455.47;4917837;29;20059;-76
2021/07/21 07:37:02;;;;;;;14.25;8.68;;;;;;;22.24;50.32;102459.91;4918427;29;20063;-76
2021/07/21 07:39:28;;;;;;;15.00;10.45;;;;;;;22.17;51.48;102449.75;4918425;29;20038;-79
2021/07/21 07:41:56;;;;;;;14.88;9.27;;;;;;;21.99;52.18;102445.66;4919127;29;20032;-75
2021/07/21 07:44:21;;;;;;;16.10;9.15;;;;;;;22.71;50.33;102453.63;4920293;29;20380;-76
2021/07/21 07:46:47;;;;;;;13.45;8.55;;;;;;;22.99;47.87;102456.78;4920258;29;20032;-77
2021/07/21 07:49:12;;;;;;;12.05;8.10;;;;;;;23.11;45.60;102456.78;4918527;29;20468;-78
2021/07/21 07:51:38;;;;;;;16.10;8.85;;;;;;;23.24;46.58;102454.78;4930742;29;20020;-76
2021/07/21 07:54:04;;;;;;;12.25;9.13;;;;;;;23.41;45.91;102454.41;4938095;29;20070;-76
2021/07/21 07:56:32;;;;;;;13.90;9.38;;;;;;;23.89;46.06;102453.09;4930301;29;20032;-79
2021/07/21 07:58:58;;;;;;;17.38;10.82;;;;;;;23.80;45.74;102452.00;4929933;29;20067;-76
2021/07/21 08:01:24;;;;;;;17.23;10.13;;;;;;;23.92;45.11;102457.38;4931445;29;20036;-81
2021/07/21 08:03:49;;;;;;;16.75;10.55;;;;;;;23.95;45.13;102447.16;4913538;29;20028;-77
2021/07/21 08:06:14;;;;;;;15.20;10.10;;;;;;;23.91;46.49;102453.81;4930214;29;20085;-77
2021/07/21 08:08:40;;;;;;;13.73;9.68;;;;;;;24.39;44.85;102460.56;4930194;29;20031;-75
2021/07/21 08:11:06;;;;;;;14.02;9.30;;;;;;;24.58;43.49;102463.47;4925184;29;20024;-77
2021/07/21 08:13:31;;;;;;;10.48;7.85;;;;;;;24.65;42.36;102459.22;4926665;29;20489;-78
2021/07/21 08:15:57;;;;;;;11.80;7.43;;;;;;;25.00;42.45;102454.41;4926590;29;20167;-78
2021/07/21 08:18:22;;;;;;;13.18;8.52;;;;;;;24.77;41.69;102449.19;4926203;29;20043;-78
2021/07/21 08:20:48;;;;;;;11.45;7.70;;;;;;;24.54;42.21;102452.06;4928513;29;20371;-77
2021/07/21 08:23:15;;;;;;;12.55;7.10;;;;;;;24.25;43.87;102456.34;4927636;29;20055;-77
2021/07/21 08:25:41;;;;;;;14.52;7.78;;;;;;;24.41;42.60;102449.63;4937375;29;20438;-76
2021/07/21 08:28:07;;;;;;;8.38;6.68;;;;;;;24.59;41.63;102448.97;4936370;29;20156;-77
2021/07/21 08:30:32;;;;;;;7.35;5.88;;;;;;;24.68;40.71;102455.44;4936297;29;20133;-75
2021/07/21 08:32:59;;;;;;;9.13;5.28;;;;;;;24.46;40.92;102451.91;4903889;23;20091;-80
2021/07/21 08:35:28;;;;;;;10.32;6.35;;;;;;;24.62;41.33;102460.38;4920711;29;20457;-80
2021/07/21 08:37:54;;;;;;;9.73;6.25;;;;;;;24.67;41.64;102459.09;4939063;29;20031;-79
2021/07/21 08:40:20;;;;;;;9.48;6.60;;;;;;;24.67;41.66;102459.09;4937808;29;20036;-80
2021/07/21 08:42:46;;;;;;;10.48;6.88;;;;;;;24.83;41.32;102464.88;4938700;29;20111;-79
2021/07/21 08:45:12;;;;;;;11.18;7.65;;;;;;;24.38;42.22;102458.81;4939872;29;20125;-79
2021/07/21 08:47:39;;;;;;;8.85;7.22;;;;;;;24.99;41.08;102469.78;4922891;29;20482;-79
2021/07/21 08:50:07;;;;;;;14.38;7.32;;;;;;;25.71;40.14;102452.53;4941894;29;20482;-81
2021/07/21 08:52:33;;;;;;;10.80;6.57;;;;;;;27.50;35.98;102455.41;4939637;29;20051;-79
2021/07/21 08:54:59;;;;;;;10.18;7.28;;;;;;;27.01;35.51;102459.31;4937760;29;20455;-79
2021/07/21 08:57:29;;;;;;;10.95;7.13;;;;;;;26.15;37.04;102458.47;4920114;29;20030;-75
2021/07/21 08:59:54;;;;;;;10.48;6.63;;;;;;;25.72;38.92;102454.25;4941662;29;20028;-78
2021/07/21 09:02:19;;;;;;;10.82;8.10;;;;;;;25.99;37.78;102457.19;4957387;29;20046;-74
2021/07/21 09:04:45;;;;;;;10.50;7.53;;;;;;;25.28;39.33;102453.75;4953175;29;20094;-74
2021/07/21 09:07:10;;;;;;;12.27;8.77;;;;;;;25.92;39.06;102453.38;4934192;29;20032;-75
2021/07/21 09:09:36;;;;;;;13.55;8.25;;;;;;;25.72;39.97;102458.78;4951351;29;20358;-74
2021/07/21 09:12:01;;;;;;;12.27;8.07;;;;;;;26.06;38.91;102455.59;4950938;29;20046;-74
2021/07/21 09:14:28;;;;;;;11.60;8.85;;;;;;;26.29;38.73;102455.28;4951809;29;20024;-75
2021/07/21 09:17:25;;;;;;;13.93;8.32;;;;;;;26.69;37.89;102466.88;4933681;29;20036;-76
2021/07/21 09:19:50;;;;;;;11.82;8.52;;;;;;;27.59;36.33;102464.47;4892062;29;20045;-76
2021/07/21 09:22:20;;;;;;;12.05;8.82;;;;;;;28.37;34.61;102462.03;4894995;29;20033;-75
2021/07/21 09:24:48;;;;;;;13.63;8.90;;;;;;;29.48;32.77;102464.81;4891123;29;20149;-74
2021/07/21 09:27:13;;;;;;;13.50;9.13;;;;;;;29.79;31.63;102470.66;4892131;29;20029;-76
2021/07/21 09:29:40;;;;;;;15.45;9.85;;;;;;;29.90;31.74;102462.13;4896366;29;20169;-75
2021/07/21 09:32:06;;;;;;;13.15;9.38;;;;;;;30.67;30.82;102461.78;4896788;29;20065;-73
2021/07/21 09:34:34;;;;;;;11.05;8.15;;;;;;;29.97;31.91;102467.72;4880199;29;20166;-75
2021/07/21 09:37:12;;;;;;;12.77;9.30;;;;;;;30.25;31.51;102472.81;4895692;29;20041;-75
2021/07/21 09:39:40;;;;;;;14.30;10.00;;;;;;;31.20;29.51;102470.22;4899456;29;20065;-80
2021/07/21 09:42:06;;;;;;;16.08;9.77;;;;;;;30.59;30.39;102468.94;4885967;29;20061;-82
2021/07/21 09:44:35;;;;;;;11.20;8.77;;;;;;;30.73;30.28;102463.78;4901582;29;20037;-81
2021/07/21 09:47:14;;;;;;;18.08;10.20;;;;;;;29.93;31.42;102459.06;4901805;29;20028;-82
2021/07/21 09:49:40;;;;;;;12.18;9.70;;;;;;;30.09;31.56;102454.59;4901743;29;20185;-82
2021/07/21 09:52:22;;;;;;;14.00;9.05;;;;;;;30.02;31.54;102457.16;4901861;29;20041;-81
2021/07/21 09:55:07;;;;;;;12.98;8.77;;;;;;;30.86;30.76;102460.53;4900987;29;20032;-81
2021/07/21 09:57:33;;;;;;;13.55;9.00;;;;;;;29.79;31.47;102454.28;4944244;29;20095;-82
2021/07/21 09:59:59;;;;;;;12.82;8.88;;;;;;;30.67;30.35;102450.84;4906242;29;20380;-82
2021/07/21 10:02:27;;;;;;;11.68;8.18;;;;;;;30.46;31.22;102453.16;4938821;29;20035;-83
2021/07/21 10:04:53;;;;;;;13.07;8.48;;;;;;;30.71;30.44;102450.31;4939201;29;20502;-81
2021/07/21 10:10:17;;;;;;;12.60;8.57;;;;;;;30.55;30.93;102444.91;4934327;29;20039;-83
2021/07/21 10:12:42;;;;;;;;;;;;;;;30.81;29.68;102449.28;4957757;29;20012;-81
2021/07/21 10:15:08;;;;;;;11.88;8.05;;;;;;;30.96;29.44;102452.09;4958726;29;19949;-81
2021/07/21 10:17:34;;;;;;;10.65;8.10;;;;;;;31.18;29.34;102457.75;4960022;29;20035;-85
2021/07/21 10:20:00;;;;;;;12.80;8.43;;;;;;;30.50;30.30;102450.06;4929828;29;20054;-79
2021/07/21 10:22:26;;;;;;;10.80;8.10;;;;;;;30.56;30.38;102446.63;4960878;29;20038;-79
2021/07/21 10:24:51;;;;;;;11.88;8.32;;;;;;;30.63;30.55;102446.75;4927228;29;20390;-79
2021/07/21 10:27:17;;;;;;;11.55;9.07;;;;;;;30.37;30.99;102446.03;4939513;29;20034;-77
2021/07/21 10:29:43;;;;;;;13.20;8.20;;;;;;;30.92;30.02;102451.63;4922210;29;20035;-85
2021/07/21 10:32:10;;;;;;;13.38;8.75;;;;;;;30.63;30.13;102453.06;4940498;29;20431;-86
2021/07/21 10:34:36;;;;;;;11.50;8.52;;;;;;;30.06;30.62;102450.31;4923977;29;20127;-85
2021/07/21 10:37:01;;;;;;;16.38;9.80;;;;;;;29.72;31.01;102448.66;4905960;29;20059;-77
2021/07/21 10:39:34;;;;;;;12.90;8.65;;;;;;;29.71;31.51;102452.41;4937897;29;20118;-77
2021/07/21 10:42:04;;;;;;;13.02;9.43;;;;;;;28.70;32.95;102454.03;4938958;29;20031;-80
2021/07/21 10:44:33;;;;;;;11.43;8.90;;;;;;;29.22;32.70;102448.59;4919602;29;20032;-78
2021/07/21 10:47:01;;;;;;;13.10;10.27;;;;;;;28.55;33.05;102442.94;4938548;29;20031;-77
2021/07/21 10:49:31;;;;;;;13.52;10.15;;;;;;;28.38;33.71;102443.88;4938208;29;20031;-77
2021/07/21 10:55:15;;;;;;;13.75;9.77;;;;;;;29.42;32.64;102451.84;4879373;29;20041;-77
2021/07/21 11:00:37;;;;;;;13.88;10.95;;;;;;;28.58;33.21;102442.59;4860829;29;20438;-77
2021/07/21 11:03:21;;;;;;;16.65;10.85;;;;;;;27.48;35.20;102432.97;4862189;29;20042;-78
2021/07/21 11:05:56;;;;;;;15.90;10.57;;;;;;;27.81;34.92;102432.41;4861880;29;20049;-78
2021/07/21 11:08:22;;;;;;;13.98;9.00;;;;;;;28.84;33.35;102441.69;4861811;29;20037;-81
2021/07/21 11:10:57;;;;;;;14.23;10.10;;;;;;;28.00;34.38;102423.22;4862529;29;20057;-79
2021/07/21 11:13:28;;;;;;;15.48;9.77;;;;;;;27.96;34.55;102424.53;4846808;29;20033;-79
2021/07/21 11:15:55;;;;;;;14.55;9.73;;;;;;;28.08;34.52;102434.16;4861409;29;20041;-79
2021/07/21 11:18:23;;;;;;;13.52;9.50;;;;;;;28.52;33.39;102426.06;4862313;29;20093;-84
2021/07/21 11:21:01;;;;;;;18.33;10.30;;;;;;;28.71;32.73;102425.81;4861112;29;20029;-79
2021/07/21 11:23:51;;;;;;;15.32;9.07;;;;;;;28.62;33.45;102432.22;4861601;29;20076;-78
2021/07/21 11:26:35;;;;;;;11.77;8.60;;;;;;;28.39;33.50;102432.81;4861928;29;20145;-81
2021/07/21 11:29:23;;;;;;;13.32;9.10;;;;;;;27.59;34.48;102423.72;4862032;29;20508;-77